createdAt,value
2018-06-13T00:01:51.288Z,101189.68
2018-06-13T00:04:18.934Z,101185.73
2018-06-13T00:06:46.571Z,101190.52
2018-06-13T00:09:14.747Z,101190.92
2018-06-13T00:11:42.383Z,101197.51
2018-06-13T00:14:10.026Z,101201.89
2018-06-13T00:16:37.950Z,101206.25
2018-06-13T00:19:06.050Z,101205.38
2018-06-13T00:21:33.657Z,101206.25
2018-06-13T00:24:01.326Z,101204.05
2018-06-13T00:26:29.072Z,101210.20
2018-06-13T00:28:56.699Z,101205.38
2018-06-13T00:31:24.343Z,101209.32
2018-06-13T00:33:52.071Z,101205.84
2018-06-13T00:36:19.721Z,101213.31
2018-06-13T00:38:47.682Z,101205.41
2018-06-13T00:41:15.345Z,101201.45
2018-06-13T00:43:42.988Z,101205.41
2018-06-13T00:46:10.903Z,101207.20
2018-06-13T00:48:39.156Z,101206.32
2018-06-13T00:51:06.818Z,101201.53
2018-06-13T00:53:34.432Z,101199.73
2018-06-13T00:56:13.302Z,101211.62
2018-06-13T00:58:41.317Z,101215.58
2018-06-13T01:01:09.840Z,101218.20
2018-06-13T01:03:37.927Z,101220.40
2018-06-13T01:06:05.544Z,101220.40
2018-06-13T01:08:33.190Z,101216.45
2018-06-13T01:11:00.852Z,101211.66
2018-06-13T01:13:28.487Z,101208.62
2018-06-13T01:15:56.233Z,101202.92
2018-06-13T01:18:23.853Z,101198.09
2018-06-13T01:20:51.508Z,101198.97
2018-06-13T01:23:19.153Z,101203.36
2018-06-13T01:25:46.777Z,101205.99
2018-06-13T01:28:15.086Z,101204.72
2018-06-13T01:30:42.703Z,101202.08
2018-06-13T01:33:10.603Z,101209.14
2018-06-13T01:35:38.496Z,101206.10
2018-06-13T01:38:06.117Z,101210.09
2018-06-13T01:40:33.772Z,101208.33
2018-06-13T01:43:02.003Z,101211.03
2018-06-13T01:45:29.916Z,101207.09
2018-06-13T01:47:57.805Z,101204.02
2018-06-13T01:50:25.462Z,101196.63
2018-06-13T01:52:53.463Z,101198.34
2018-06-13T01:55:21.764Z,101193.08
2018-06-13T01:57:49.674Z,101196.59
2018-06-13T02:00:18.158Z,101190.86
2018-06-13T02:02:45.808Z,101196.99
2018-06-13T02:05:16.081Z,101194.80
2018-06-13T02:07:44.841Z,101191.33
2018-06-13T02:10:12.790Z,101189.53
2018-06-13T02:12:40.720Z,101187.81
2018-06-13T02:15:08.369Z,101187.81
2018-06-13T02:17:36.272Z,101190.45
2018-06-13T02:20:04.086Z,101192.68
2018-06-13T02:22:31.717Z,101189.64
2018-06-13T02:24:59.583Z,101191.84
2018-06-13T02:27:27.349Z,101194.47
2018-06-13T02:29:54.911Z,101191.84
2018-06-13T02:32:22.557Z,101194.55
2018-06-13T02:34:50.950Z,101188.00
2018-06-13T02:37:18.711Z,101192.79
2018-06-13T02:39:46.961Z,101192.86
2018-06-13T02:42:14.901Z,101189.79
2018-06-13T02:44:42.572Z,101186.31
2018-06-13T02:47:10.226Z,101186.31
2018-06-13T02:49:37.840Z,101185.87
2018-06-13T02:52:06.032Z,101188.11
2018-06-13T02:54:34.510Z,101192.05
2018-06-13T02:57:02.344Z,101191.21
2018-06-13T02:59:30.012Z,101192.56
2018-06-13T03:01:57.661Z,101187.34
2018-06-13T03:04:25.365Z,101196.08
2018-06-13T03:06:52.970Z,101199.58
2018-06-13T03:09:21.501Z,101198.67
2018-06-13T03:11:53.243Z,101199.04
2018-06-13T03:14:21.597Z,101194.17
2018-06-13T03:16:49.506Z,101193.27
2018-06-13T03:19:17.148Z,101196.73
2018-06-13T03:21:44.801Z,101193.23
2018-06-13T03:24:12.594Z,101186.68
2018-06-13T03:26:40.557Z,101181.82
2018-06-13T03:29:08.405Z,101192.75
2018-06-13T03:31:36.299Z,101185.33
2018-06-13T03:34:04.650Z,101191.44
2018-06-13T03:36:32.625Z,101195.79
2018-06-13T03:39:00.245Z,101191.84
2018-06-13T03:41:27.885Z,101191.84
2018-06-13T03:43:55.493Z,101191.44
2018-06-13T03:46:23.408Z,101188.80
2018-06-13T03:48:51.261Z,101190.52
2018-06-13T03:51:18.929Z,101179.99
2018-06-13T03:53:46.565Z,101186.58
2018-06-13T03:56:14.484Z,101176.92
2018-06-13T03:58:42.434Z,101181.27
2018-06-13T04:01:10.298Z,101187.41
2018-06-13T04:03:37.982Z,101182.55
2018-06-13T04:06:06.491Z,101181.23
2018-06-13T04:08:34.448Z,101175.97
2018-06-13T04:11:02.450Z,101183.50
2018-06-13T04:13:30.608Z,101179.92
2018-06-13T04:15:58.556Z,101175.97
2018-06-13T04:18:26.234Z,101181.20
2018-06-13T04:20:54.149Z,101183.39
2018-06-13T04:23:22.156Z,101187.75
2018-06-13T04:25:50.006Z,101186.91
2018-06-13T04:28:18.925Z,101196.95
2018-06-13T04:30:47.205Z,101194.73
2018-06-13T04:33:15.092Z,101196.45
2018-06-13T04:35:42.989Z,101195.61
2018-06-13T04:38:11.274Z,101198.20
2018-06-13T04:40:39.309Z,101196.88
2018-06-13T04:43:07.327Z,101198.64
2018-06-13T04:45:35.114Z,101200.36
2018-06-13T04:48:02.725Z,101196.37
2018-06-13T04:50:30.329Z,101203.84
2018-06-13T04:52:58.102Z,101198.61
2018-06-13T04:55:26.029Z,101196.20
2018-06-13T04:57:53.937Z,101194.61
2018-06-13T05:00:21.858Z,101197.56
2018-06-13T05:02:49.462Z,101198.66
2018-06-13T05:05:17.142Z,101202.67
2018-06-13T05:07:44.759Z,101201.52
2018-06-13T05:10:12.506Z,101199.18
2018-06-13T05:12:40.469Z,101202.14
2018-06-13T05:15:08.609Z,101204.63
2018-06-13T05:17:36.579Z,101206.65
2018-06-13T05:20:04.523Z,101202.33
2018-06-13T05:22:32.192Z,101204.25
2018-06-13T05:24:59.971Z,101204.38
2018-06-13T05:27:27.609Z,101211.55
2018-06-13T05:29:55.324Z,101207.45
2018-06-13T05:32:23.627Z,101219.16
2018-06-13T05:34:51.597Z,101212.91
2018-06-13T05:37:19.647Z,101211.92
2018-06-13T05:39:47.580Z,101212.25
2018-06-13T05:42:15.475Z,101217.84
2018-06-13T05:44:43.160Z,101208.07
2018-06-13T05:47:10.846Z,101223.84
2018-06-13T05:49:38.652Z,101222.04
2018-06-13T05:52:06.869Z,101222.88
2018-06-13T05:54:34.515Z,101229.06
2018-06-13T05:57:03.290Z,101238.84
2018-06-13T05:59:31.886Z,101225.23
2018-06-13T06:01:59.555Z,101225.23
2018-06-13T06:04:27.496Z,101232.66
2018-06-13T06:06:55.166Z,101227.31
2018-06-13T06:09:23.112Z,101227.67
2018-06-13T06:11:50.994Z,101232.03
2018-06-13T06:14:19.278Z,101229.83
2018-06-13T06:16:46.957Z,101232.03
2018-06-13T06:19:15.341Z,101241.21
2018-06-13T06:21:42.992Z,101238.58
2018-06-13T06:24:10.639Z,101242.56
2018-06-13T06:26:38.688Z,101243.41
2018-06-13T06:29:06.320Z,101251.74
2018-06-13T06:31:34.725Z,101254.78
2018-06-13T06:34:02.398Z,101249.08
2018-06-13T06:36:30.050Z,101258.73
2018-06-13T06:38:57.991Z,101248.64
2018-06-13T06:41:25.617Z,101250.43
2018-06-13T06:43:53.236Z,101254.86
2018-06-13T06:46:20.886Z,101257.09
2018-06-13T06:48:48.529Z,101250.17
2018-06-13T06:51:16.208Z,101249.38
2018-06-13T06:53:43.982Z,101255.59
2018-06-13T06:56:11.674Z,101253.03
2018-06-13T06:58:40.157Z,101250.94
2018-06-13T07:01:07.794Z,101254.92
2018-06-13T07:03:35.453Z,101261.08
2018-06-13T07:06:03.409Z,101266.41
2018-06-13T07:08:31.061Z,101270.39
2018-06-13T07:10:59.252Z,101281.41
2018-06-13T07:13:27.159Z,101280.13
2018-06-13T07:15:55.054Z,101278.80
2018-06-13T07:18:22.746Z,101281.94
2018-06-13T07:20:50.834Z,101282.45
2018-06-13T07:23:18.494Z,101278.44
2018-06-13T07:25:46.526Z,101272.70
2018-06-13T07:28:14.292Z,101281.37
2018-06-13T07:30:41.983Z,101277.37
2018-06-13T07:33:09.739Z,101279.95
2018-06-13T07:35:38.463Z,101273.25
2018-06-13T07:38:06.696Z,101275.78
2018-06-13T07:40:34.341Z,101270.87
2018-06-13T07:43:02.201Z,101271.69
2018-06-13T07:45:30.223Z,101273.87
2018-06-13T07:47:57.881Z,101272.89
2018-06-13T07:50:25.522Z,101269.34
2018-06-13T07:52:53.712Z,101278.97
2018-06-13T07:55:21.342Z,101268.87
2018-06-13T07:57:48.979Z,101272.78
2018-06-13T08:00:16.638Z,101269.20
2018-06-13T08:02:45.225Z,101273.63
2018-06-13T08:05:12.974Z,101278.09
2018-06-13T08:07:40.603Z,101278.56
2018-06-13T08:10:08.292Z,101283.88
2018-06-13T08:12:36.255Z,101284.34
2018-06-13T08:15:04.258Z,101278.20
2018-06-13T08:17:32.883Z,101291.33
2018-06-13T08:20:00.529Z,101293.93
2018-06-13T08:22:28.715Z,101287.70
2018-06-13T08:24:56.797Z,101287.13
2018-06-13T08:27:24.466Z,101293.16
2018-06-13T08:29:52.096Z,101294.05
2018-06-13T08:32:20.677Z,101292.69
2018-06-13T08:34:48.630Z,101293.49
2018-06-13T08:37:16.266Z,101295.65
2018-06-13T08:39:44.427Z,101296.02
2018-06-13T08:42:12.089Z,101297.73
2018-06-13T08:44:40.078Z,101298.58
2018-06-13T08:47:07.811Z,101298.47
2018-06-13T08:49:35.936Z,101302.86
2018-06-13T08:52:03.558Z,101306.38
2018-06-13T08:54:31.576Z,101306.05
2018-06-13T08:56:59.635Z,101314.94
2018-06-13T08:59:27.804Z,101319.80
2018-06-13T09:01:55.420Z,101323.75
2018-06-13T09:04:23.443Z,101318.89
2018-06-13T09:06:52.946Z,101322.33
2018-06-13T09:09:20.847Z,101321.01
2018-06-13T09:11:48.815Z,101326.24
2018-06-13T09:14:16.459Z,101315.63
2018-06-13T09:16:44.108Z,101323.50
2018-06-13T09:19:13.056Z,101319.98
2018-06-13T09:21:41.006Z,101330.53
2018-06-13T09:24:09.226Z,101332.24
2018-06-13T09:26:37.347Z,101326.53
2018-06-13T09:29:05.022Z,101327.41
2018-06-13T09:31:33.193Z,101320.38
2018-06-13T09:34:00.861Z,101326.42
2018-06-13T09:36:28.475Z,101322.47
2018-06-13T09:38:56.139Z,101321.55
2018-06-13T09:41:24.089Z,101326.42
2018-06-13T09:43:51.770Z,101334.81
2018-06-13T09:46:19.409Z,101329.65
2018-06-13T09:48:47.224Z,101331.36
2018-06-13T09:51:14.873Z,101338.84
2018-06-13T09:53:42.839Z,101340.59
2018-06-13T09:56:10.497Z,101341.87
2018-06-13T09:58:44.020Z,101338.28
2018-06-13T10:01:17.614Z,101334.29
2018-06-13T10:03:45.282Z,101330.73
2018-06-13T10:06:12.953Z,101339.05
2018-06-13T10:08:40.716Z,101336.38
2018-06-13T10:11:08.300Z,101339.41
2018-06-13T10:13:36.085Z,101346.52
2018-06-13T10:16:03.730Z,101348.68
2018-06-13T10:18:31.365Z,101350.88
2018-06-13T10:20:59.756Z,101353.03
2018-06-13T10:23:27.616Z,101353.33
2018-06-13T10:25:55.242Z,101355.96
2018-06-13T10:28:22.912Z,101355.48
2018-06-13T10:30:50.840Z,101365.15
2018-06-13T10:33:18.476Z,101362.00
2018-06-13T10:35:46.948Z,101363.13
2018-06-13T10:38:14.610Z,101358.73
2018-06-13T10:40:42.253Z,101366.64
2018-06-13T10:43:09.929Z,101363.57
2018-06-13T10:45:37.659Z,101366.64
2018-06-13T10:48:05.431Z,101372.39
2018-06-13T10:50:33.395Z,101369.80
2018-06-13T10:53:01.242Z,101375.55
2018-06-13T10:55:28.946Z,101366.28
2018-06-13T10:57:56.558Z,101381.55
2018-06-13T11:00:24.669Z,101373.09
2018-06-13T11:02:53.048Z,101377.95
2018-06-13T11:05:20.675Z,101384.19
2018-06-13T11:07:48.713Z,101385.14
2018-06-13T11:10:16.662Z,101388.32
2018-06-13T11:12:44.381Z,101394.91
2018-06-13T11:15:12.030Z,101400.19
2018-06-13T11:17:40.054Z,101397.62
2018-06-13T11:20:07.905Z,101401.98
2018-06-13T11:22:36.064Z,101396.67
2018-06-13T11:25:03.721Z,101402.75
2018-06-13T11:27:31.361Z,101389.17
2018-06-13T11:29:59.071Z,101382.17
2018-06-13T11:32:27.030Z,101383.89
2018-06-13T11:34:57.827Z,101392.20
2018-06-13T11:37:26.709Z,101392.20
2018-06-13T11:39:54.696Z,101391.33
2018-06-13T11:42:22.349Z,101387.81
2018-06-13T11:44:50.013Z,101385.58
2018-06-13T11:47:17.968Z,101392.64
2018-06-13T11:49:45.646Z,101381.33
2018-06-13T11:52:13.613Z,101389.19
2018-06-13T11:54:41.261Z,101388.39
2018-06-13T11:57:08.925Z,101385.87
2018-06-13T11:59:36.645Z,101402.31
2018-06-13T12:02:04.763Z,101393.77
2018-06-13T12:04:32.629Z,101383.92
2018-06-13T12:07:00.255Z,101385.13
2018-06-13T12:09:27.947Z,101381.89
2018-06-13T12:11:55.613Z,101385.73
2018-06-13T12:14:23.586Z,101380.42
2018-06-13T12:16:51.336Z,101386.54
2018-06-13T12:19:19.629Z,101386.02
2018-06-13T12:21:48.370Z,101381.15
2018-06-13T12:24:15.981Z,101387.19
2018-06-13T12:26:44.085Z,101386.70
2018-06-13T12:29:11.741Z,101391.95
2018-06-13T12:31:39.971Z,101386.16
2018-06-13T12:34:08.109Z,101391.39
2018-06-13T12:36:36.334Z,101392.82
2018-06-13T12:39:06.896Z,101394.62
2018-06-13T12:41:34.909Z,101383.87
2018-06-13T12:44:02.769Z,101392.70
2018-06-13T12:46:31.273Z,101390.11
2018-06-13T12:48:59.518Z,101393.66
2018-06-13T12:51:27.598Z,101399.30
2018-06-13T12:53:55.427Z,101392.63
2018-06-13T12:56:23.126Z,101391.74
2018-06-13T12:58:50.811Z,101389.11
2018-06-13T13:01:18.563Z,101399.70
2018-06-13T13:03:46.767Z,101392.58
2018-06-13T13:06:14.371Z,101392.02
2018-06-13T13:08:42.297Z,101400.81
2018-06-13T13:11:10.325Z,101398.66
2018-06-13T13:13:37.935Z,101394.66
2018-06-13T13:16:05.803Z,101390.94
2018-06-13T13:18:33.789Z,101398.33
2018-06-13T13:21:02.133Z,101392.73
2018-06-13T13:23:29.739Z,101395.30
2018-06-13T13:25:57.426Z,101400.26
2018-06-13T13:28:25.061Z,101400.17
2018-06-13T13:30:53.302Z,101393.33
2018-06-13T13:33:21.692Z,101402.53
2018-06-13T13:35:49.382Z,101409.70
2018-06-13T13:38:17.057Z,101418.01
2018-06-13T13:40:44.931Z,101412.52
2018-06-13T13:43:12.729Z,101400.88
2018-06-13T13:45:40.517Z,101402.03
2018-06-13T13:48:08.674Z,101407.67
2018-06-13T13:50:36.346Z,101411.50
2018-06-13T13:53:04.633Z,101412.34
2018-06-13T13:55:32.307Z,101417.18
2018-06-13T13:58:00.047Z,101414.94
2018-06-13T14:00:27.838Z,101415.91
2018-06-13T14:02:56.235Z,101418.48
2018-06-13T14:05:26.486Z,101419.73
2018-06-13T14:07:54.794Z,101422.09
2018-06-13T14:10:23.052Z,101425.73
2018-06-13T14:12:50.773Z,101435.53
2018-06-13T14:15:18.771Z,101421.09
2018-06-13T14:17:46.575Z,101419.41
2018-06-13T14:20:14.492Z,101430.41
2018-06-13T14:22:42.191Z,101427.41
2018-06-13T14:25:09.794Z,101426.93
2018-06-13T14:27:37.451Z,101425.20
2018-06-13T14:30:05.126Z,101430.05
2018-06-13T14:32:32.929Z,101422.13
2018-06-13T14:35:00.580Z,101428.65
2018-06-13T14:37:28.403Z,101428.09
2018-06-13T14:39:56.062Z,101425.97
2018-06-13T14:42:24.026Z,101425.93
2018-06-13T14:44:52.153Z,101423.25
2018-06-13T14:47:20.313Z,101431.41
2018-06-13T14:49:47.920Z,101439.08
2018-06-13T14:52:15.549Z,101437.37
2018-06-13T14:54:43.625Z,101434.69
2018-06-13T14:57:11.497Z,101427.84
2018-06-13T14:59:39.131Z,101428.16
2018-06-13T15:02:06.946Z,101430.24
2018-06-13T15:04:35.346Z,101435.97
2018-06-13T15:07:04.526Z,101434.44
2018-06-13T15:09:32.660Z,101421.53
2018-06-13T15:12:00.277Z,101429.69
2018-06-13T15:14:28.200Z,101437.29
2018-06-13T15:16:56.543Z,101443.13
2018-06-13T15:19:24.174Z,101440.64
2018-06-13T15:21:52.069Z,101429.61
2018-06-13T15:24:20.284Z,101434.61
2018-06-13T15:26:48.384Z,101433.28
2018-06-13T15:29:16.501Z,101428.92
2018-06-13T15:31:44.312Z,101432.09
2018-06-13T15:34:11.986Z,101438.84
2018-06-13T15:36:39.689Z,101429.64
2018-06-13T15:39:09.525Z,101443.52
2018-06-13T15:41:37.873Z,101441.48
2018-06-13T15:44:05.687Z,101436.56
2018-06-13T15:46:34.134Z,101442.95
2018-06-13T15:49:01.813Z,101439.65
2018-06-13T15:51:30.619Z,101447.17
2018-06-13T15:53:58.280Z,101433.30
2018-06-13T15:56:26.528Z,101425.16
2018-06-13T15:58:54.253Z,101449.94
2018-06-13T16:01:22.104Z,101451.72
2018-06-13T16:03:50.342Z,101442.29
2018-06-13T16:06:18.005Z,101449.41
2018-06-13T16:08:46.042Z,101438.99
2018-06-13T16:11:13.692Z,101439.33
2018-06-13T16:13:41.331Z,101429.64
2018-06-13T16:16:09.597Z,101431.81
2018-06-13T16:18:37.616Z,101434.30
2018-06-13T16:21:05.329Z,101439.30
2018-06-13T16:23:33.028Z,101437.36
2018-06-13T16:26:00.779Z,101444.56
2018-06-13T16:28:28.467Z,101434.33
2018-06-13T16:30:56.216Z,101449.15
2018-06-13T16:33:24.813Z,101447.80
2018-06-13T16:35:52.846Z,101449.25
2018-06-13T16:38:20.556Z,101449.43
2018-06-13T16:40:48.760Z,101457.80
2018-06-13T16:43:16.434Z,101464.23
2018-06-13T16:45:44.130Z,101457.39
2018-06-13T16:48:11.809Z,101462.36
2018-06-13T16:50:47.691Z,101465.59
2018-06-13T16:53:26.516Z,101466.57
2018-06-13T16:55:54.472Z,101465.76
2018-06-13T16:58:22.157Z,101465.42
2018-06-13T17:00:50.095Z,101472.05
2018-06-13T17:03:17.817Z,101471.72
2018-06-13T17:05:45.773Z,101458.64
2018-06-13T17:08:13.665Z,101465.27
2018-06-13T17:10:41.398Z,101465.77
2018-06-13T17:13:09.073Z,101468.03
2018-06-13T17:15:36.848Z,101479.08
2018-06-13T17:18:04.502Z,101472.53
2018-06-13T17:20:32.126Z,101480.47
2018-06-13T17:22:59.838Z,101489.69
2018-06-13T17:25:27.489Z,101482.76
2018-06-13T17:27:55.406Z,101484.98
2018-06-13T17:30:23.219Z,101484.08
2018-06-13T17:32:50.973Z,101490.56
2018-06-13T17:35:18.647Z,101484.80
2018-06-13T17:37:46.618Z,101490.50
2018-06-13T17:40:14.265Z,101485.84
2018-06-13T17:42:42.134Z,101495.16
2018-06-13T17:45:09.849Z,101498.54
2018-06-13T17:47:37.490Z,101494.99
2018-06-13T17:50:05.454Z,101502.36
2018-06-13T17:52:33.096Z,101503.58
2018-06-13T17:55:00.898Z,101512.09
2018-06-13T17:57:28.594Z,101501.18
2018-06-13T17:59:56.256Z,101506.65
2018-06-13T18:02:23.953Z,101513.44
2018-06-13T18:04:51.626Z,101514.95
2018-06-13T18:07:19.529Z,101518.16
2018-06-13T18:09:47.558Z,101506.36
2018-06-13T18:12:15.530Z,101509.34
2018-06-13T18:14:43.323Z,101502.75
2018-06-13T18:17:11.248Z,101502.47
2018-06-13T18:19:38.868Z,101508.58
2018-06-13T18:22:07.068Z,101500.56
2018-06-13T18:24:34.682Z,101504.86
2018-06-13T18:27:02.323Z,101504.35
2018-06-13T18:29:31.769Z,101509.24
2018-06-13T18:32:03.443Z,101521.50
2018-06-13T18:34:31.674Z,101517.17
2018-06-13T18:36:59.754Z,101525.98
2018-06-13T18:39:27.548Z,101520.72
2018-06-13T18:41:55.557Z,101522.47
2018-06-13T18:44:23.177Z,101522.98
2018-06-13T18:46:51.610Z,101519.09
2018-06-13T18:49:19.494Z,101515.16
2018-06-13T18:51:47.160Z,101523.45
2018-06-13T18:54:15.036Z,101520.28
2018-06-13T18:56:42.665Z,101518.55
2018-06-13T18:59:10.678Z,101523.45
2018-06-13T19:01:38.313Z,101536.17
2018-06-13T19:04:06.170Z,101537.93
2018-06-13T19:06:34.664Z,101545.89
2018-06-13T19:09:02.425Z,101538.05
2018-06-13T19:11:30.560Z,101539.42
2018-06-13T19:13:58.471Z,101537.73
2018-06-13T19:16:26.458Z,101539.55
2018-06-13T19:18:54.098Z,101541.73
2018-06-13T19:21:22.057Z,101545.80
2018-06-13T19:23:50.481Z,101542.50
2018-06-13T19:26:18.340Z,101542.88
2018-06-13T19:28:45.990Z,101541.97
2018-06-13T19:31:14.065Z,101545.92
2018-06-13T19:33:41.725Z,101547.30
2018-06-13T19:36:09.453Z,101554.31
2018-06-13T19:38:37.289Z,101556.95
2018-06-13T19:41:04.916Z,101554.81
2018-06-13T19:43:40.050Z,101560.08
2018-06-13T19:46:08.854Z,101568.84
2018-06-13T19:48:42.539Z,101566.69
2018-06-13T19:51:10.815Z,101568.03
2018-06-13T19:53:44.375Z,101570.25
2018-06-13T19:56:13.309Z,101572.44
2018-06-13T19:58:41.574Z,101573.32
2018-06-13T20:01:09.553Z,101586.07
2018-06-13T20:03:42.788Z,101577.73
2018-06-13T20:06:10.899Z,101589.17
2018-06-13T20:08:38.545Z,101583.05
2018-06-13T20:11:06.551Z,101583.08
2018-06-13T20:13:39.723Z,101581.78
2018-06-13T20:16:13.017Z,101582.48
2018-06-13T20:18:46.226Z,101580.81
2018-06-13T20:21:14.311Z,101580.42
2018-06-13T20:23:43.027Z,101577.31
2018-06-13T20:26:16.776Z,101574.27
2018-06-13T20:28:50.013Z,101573.36
2018-06-13T20:31:22.705Z,101573.36
2018-06-13T20:33:50.904Z,101576.93
2018-06-13T20:36:18.889Z,101577.81
2018-06-13T20:38:47.212Z,101582.17
2018-06-13T20:41:15.152Z,101582.64
2018-06-13T20:43:42.983Z,101584.39
2018-06-13T20:46:11.325Z,101580.45
2018-06-13T20:48:39.022Z,101584.39
2018-06-13T20:51:06.941Z,101583.08
2018-06-13T20:53:34.718Z,101580.88
2018-06-13T20:56:02.715Z,101580.47
2018-06-13T20:58:30.337Z,101574.77
2018-06-13T21:00:58.018Z,101573.02
2018-06-13T21:03:25.646Z,101574.33
2018-06-13T21:05:53.819Z,101576.11
2018-06-13T21:08:21.753Z,101583.98
2018-06-13T21:10:49.755Z,101578.74
2018-06-13T21:13:17.552Z,101579.67
2018-06-13T21:15:47.482Z,101578.36
2018-06-13T21:18:15.659Z,101586.69
2018-06-13T21:20:43.881Z,101586.72
2018-06-13T21:23:11.922Z,101583.65
2018-06-13T21:25:40.130Z,101586.72
2018-06-13T21:28:07.777Z,101596.39
2018-06-13T21:30:35.984Z,101588.53
2018-06-13T21:33:03.933Z,101589.84
2018-06-13T21:35:32.249Z,101585.42
2018-06-13T21:37:59.885Z,101577.59
2018-06-13T21:40:27.529Z,101579.31
2018-06-13T21:42:55.540Z,101580.63
2018-06-13T21:45:23.410Z,101580.63
2018-06-13T21:47:51.256Z,101583.70
2018-06-13T21:50:18.918Z,101585.89
2018-06-13T21:52:46.882Z,101587.21
2018-06-13T21:55:14.528Z,101589.84
2018-06-13T21:57:42.474Z,101584.58
2018-06-13T22:00:11.174Z,101579.73
2018-06-13T22:02:39.609Z,101575.78
2018-06-13T22:05:07.222Z,101576.69
2018-06-13T22:07:35.428Z,101573.15
2018-06-13T22:10:03.858Z,101571.83
2018-06-13T22:12:31.463Z,101575.34
2018-06-13T22:14:59.150Z,101574.46
2018-06-13T22:17:27.673Z,101569.64
2018-06-13T22:19:55.656Z,101564.38
2018-06-13T22:22:24.064Z,101563.52
2018-06-13T22:24:52.122Z,101558.70
2018-06-13T22:27:20.282Z,101557.85
2018-06-13T22:29:47.903Z,101563.96
2018-06-13T22:32:15.567Z,101566.59
2018-06-13T22:34:43.770Z,101566.59
2018-06-13T22:37:11.455Z,101564.84
2018-06-13T22:39:39.092Z,101555.22
2018-06-13T22:42:07.012Z,101555.22
2018-06-13T22:44:35.033Z,101555.63
2018-06-13T22:47:02.714Z,101549.90
2018-06-13T22:49:30.323Z,101548.58
2018-06-13T22:51:58.223Z,101541.56
2018-06-13T22:54:26.378Z,101545.52
2018-06-13T22:56:54.031Z,101543.78
2018-06-13T22:59:21.725Z,101545.54
2018-06-13T23:01:49.387Z,101546.86
2018-06-13T23:04:17.057Z,101542.06
2018-06-13T23:06:44.849Z,101538.11
2018-06-13T23:09:12.840Z,101536.80
2018-06-13T23:11:40.474Z,101535.02
2018-06-13T23:14:08.122Z,101535.92
2018-06-13T23:16:36.093Z,101528.02
2018-06-13T23:19:03.737Z,101527.62
2018-06-13T23:21:32.348Z,101535.95
2018-06-13T23:24:00.321Z,101531.59
2018-06-13T23:26:28.134Z,101535.95
2018-06-13T23:28:55.795Z,101543.00
2018-06-13T23:31:23.412Z,101542.55
2018-06-13T23:33:51.457Z,101537.76
2018-06-13T23:36:19.431Z,101543.87
2018-06-13T23:38:47.673Z,101538.22
2018-06-13T23:41:15.550Z,101541.73
2018-06-13T23:43:43.324Z,101534.27
2018-06-13T23:46:10.947Z,101533.42
2018-06-13T23:48:39.182Z,101530.33
2018-06-13T23:51:06.870Z,101522.93
2018-06-13T23:53:34.724Z,101531.23
2018-06-13T23:56:02.369Z,101521.14
2018-06-13T23:58:29.980Z,101511.33
